createdAt,value
2022-11-07T00:00:28.078Z,100.00
2022-11-07T00:02:55.042Z,100.00
2022-11-07T00:05:22.385Z,100.00
2022-11-07T00:07:49.649Z,100.00
2022-11-07T00:10:16.525Z,100.00
2022-11-07T00:12:43.265Z,100.00
2022-11-07T00:15:10.519Z,100.00
2022-11-07T00:17:37.281Z,100.00
2022-11-07T00:20:04.643Z,100.00
2022-11-07T00:22:31.439Z,100.00
2022-11-07T00:24:58.247Z,100.00
2022-11-07T00:27:25.142Z,100.00
2022-11-07T00:29:51.908Z,100.00
2022-11-07T00:32:18.721Z,100.00
2022-11-07T00:34:45.460Z,100.00
2022-11-07T00:37:12.220Z,100.00
2022-11-07T00:39:39.062Z,100.00
2022-11-07T00:42:05.859Z,100.00
2022-11-07T00:44:32.679Z,100.00
2022-11-07T00:46:59.407Z,100.00
2022-11-07T00:49:26.219Z,100.00
2022-11-07T00:51:53.022Z,100.00
2022-11-07T00:54:19.758Z,100.00
2022-11-07T00:56:46.519Z,100.00
2022-11-07T00:59:13.367Z,100.00
2022-11-07T01:01:40.300Z,100.00
2022-11-07T01:04:25.832Z,100.00
2022-11-07T01:06:52.699Z,100.00
2022-11-07T01:09:20.882Z,100.00
2022-11-07T01:11:47.780Z,100.00
2022-11-07T01:14:15.679Z,100.00
2022-11-07T01:16:42.640Z,100.00
2022-11-07T01:19:09.579Z,100.00
2022-11-07T01:21:40.059Z,100.00
2022-11-07T01:24:08.160Z,100.00
2022-11-07T01:26:34.919Z,100.00
2022-11-07T01:29:01.680Z,100.00
2022-11-07T01:31:28.442Z,100.00
2022-11-07T01:33:55.320Z,100.00
2022-11-07T01:36:22.119Z,100.00
2022-11-07T01:38:49.079Z,100.00
2022-11-07T01:41:21.708Z,100.00
2022-11-07T01:43:50.039Z,100.00
2022-11-07T01:46:16.961Z,100.00
2022-11-07T01:48:47.201Z,100.00
2022-11-07T01:51:14.006Z,100.00
2022-11-07T01:53:41.103Z,100.00
2022-11-07T01:56:11.182Z,100.00
2022-11-07T01:58:37.968Z,100.00
2022-11-07T02:01:05.021Z,100.00
2022-11-07T02:03:31.799Z,100.00
2022-11-07T02:06:01.039Z,100.00
2022-11-07T02:08:28.080Z,100.00
2022-11-07T02:10:54.819Z,100.00
2022-11-07T02:13:27.263Z,100.00
2022-11-07T02:15:54.079Z,100.00
2022-11-07T02:18:22.421Z,100.00
2022-11-07T02:20:49.240Z,100.00
2022-11-07T02:24:11.619Z,100.00
2022-11-07T02:26:38.360Z,100.00
2022-11-07T02:29:06.924Z,100.00
2022-11-07T02:31:33.686Z,100.00
2022-11-07T02:34:00.440Z,100.00
2022-11-07T02:36:27.216Z,100.00
2022-11-07T02:38:58.986Z,100.00
2022-11-07T02:41:27.759Z,100.00
2022-11-07T02:43:59.379Z,100.00
2022-11-07T02:46:26.480Z,100.00
2022-11-07T02:48:57.481Z,100.00
2022-11-07T02:51:24.560Z,100.00
2022-11-07T02:53:51.759Z,100.00
2022-11-07T02:56:18.821Z,100.00
2022-11-07T02:58:45.758Z,100.00
2022-11-07T03:01:12.603Z,100.00
2022-11-07T03:03:42.979Z,100.00
2022-11-07T03:06:11.320Z,100.00
2022-11-07T03:08:38.080Z,100.00
2022-11-07T03:11:05.100Z,100.00
2022-11-07T03:13:32.023Z,100.00
2022-11-07T03:15:58.816Z,100.00
2022-11-07T03:18:25.780Z,100.00
2022-11-07T03:20:52.581Z,100.00
2022-11-07T03:23:19.378Z,100.00
2022-11-07T03:25:46.119Z,100.00
2022-11-07T03:28:12.962Z,100.00
2022-11-07T03:30:39.698Z,100.00
2022-11-07T03:33:06.638Z,100.00
2022-11-07T03:35:33.443Z,100.00
2022-11-07T03:38:00.202Z,100.00
2022-11-07T03:40:27.362Z,100.00
2022-11-07T03:42:54.120Z,100.00
2022-11-07T03:45:20.899Z,100.00
2022-11-07T03:47:47.946Z,100.00
2022-11-07T03:50:17.405Z,100.00
2022-11-07T03:52:44.240Z,100.00
2022-11-07T03:55:11.571Z,100.00
2022-11-07T03:57:38.520Z,100.00
2022-11-07T04:00:06.263Z,100.00
2022-11-07T04:02:33.223Z,100.00
2022-11-07T04:05:00.154Z,100.00
2022-11-07T04:07:26.960Z,100.00
2022-11-07T04:09:53.759Z,100.00
2022-11-07T04:12:39.181Z,100.00
2022-11-07T04:15:24.819Z,100.00
2022-11-07T04:17:51.541Z,100.00
2022-11-07T04:20:18.358Z,100.00
2022-11-07T04:22:45.098Z,100.00
2022-11-07T04:25:12.279Z,100.00
2022-11-07T04:27:44.957Z,100.00
2022-11-07T04:30:20.055Z,100.00
2022-11-07T04:32:54.500Z,100.00
2022-11-07T04:35:22.160Z,100.00
2022-11-07T04:37:49.023Z,100.00
2022-11-07T04:40:16.061Z,100.00
2022-11-07T04:42:43.238Z,100.00
2022-11-07T04:45:10.521Z,100.00
2022-11-07T04:47:40.411Z,100.00
2022-11-07T04:50:10.379Z,100.00
2022-11-07T04:52:37.373Z,100.00
2022-11-07T04:55:04.938Z,100.00
2022-11-07T04:57:31.699Z,100.00
2022-11-07T04:59:58.587Z,100.00
2022-11-07T05:02:25.634Z,100.00
2022-11-07T05:04:52.681Z,100.00
2022-11-07T05:07:19.863Z,100.00
2022-11-07T05:09:46.602Z,100.00
2022-11-07T05:12:13.379Z,100.00
2022-11-07T05:14:40.140Z,100.00
2022-11-07T05:17:06.938Z,100.00
2022-11-07T05:19:33.684Z,100.00
2022-11-07T05:22:18.940Z,100.00
2022-11-07T05:24:45.679Z,100.00
2022-11-07T05:27:19.140Z,100.00
2022-11-07T05:29:46.180Z,100.00
2022-11-07T05:32:13.338Z,100.00
2022-11-07T05:34:40.180Z,100.00
2022-11-07T05:37:10.602Z,100.00
2022-11-07T05:39:37.400Z,100.00
2022-11-07T05:42:04.367Z,100.00
2022-11-07T05:44:31.163Z,100.00
2022-11-07T05:46:58.117Z,100.00
2022-11-07T05:49:25.341Z,100.00
2022-11-07T05:51:52.442Z,100.00
2022-11-07T05:54:19.359Z,100.00
2022-11-07T05:56:46.160Z,100.00
2022-11-07T05:59:12.978Z,100.00
2022-11-07T06:01:40.292Z,100.00
2022-11-07T06:04:07.418Z,100.00
2022-11-07T06:06:34.800Z,100.00
2022-11-07T06:09:01.583Z,100.00
2022-11-07T06:11:28.366Z,100.00
2022-11-07T06:13:55.219Z,100.00
2022-11-07T06:16:22.099Z,100.00
2022-11-07T06:18:48.880Z,100.00
2022-11-07T06:21:16.940Z,100.00
2022-11-07T06:23:43.862Z,100.00
2022-11-07T06:26:10.658Z,100.00
2022-11-07T06:28:37.600Z,100.00
2022-11-07T06:31:04.585Z,100.00
2022-11-07T06:33:31.480Z,100.00
2022-11-07T06:36:06.308Z,100.00
2022-11-07T06:38:33.086Z,100.00
2022-11-07T06:41:08.072Z,100.00
2022-11-07T06:43:35.080Z,100.00
2022-11-07T06:46:06.140Z,100.00
2022-11-07T06:48:32.932Z,100.00
2022-11-07T06:51:00.267Z,100.00
2022-11-07T06:53:27.324Z,100.00
2022-11-07T06:55:54.587Z,100.00
2022-11-07T06:58:21.940Z,100.00
2022-11-07T07:00:48.819Z,100.00
2022-11-07T07:03:15.981Z,100.00
2022-11-07T07:05:42.980Z,100.00
2022-11-07T07:08:10.540Z,100.00
2022-11-07T07:10:46.240Z,100.00
2022-11-07T07:13:14.146Z,100.00
2022-11-07T07:15:51.254Z,100.00
2022-11-07T07:18:19.185Z,100.00
2022-11-07T07:20:46.744Z,100.00
2022-11-07T07:23:13.624Z,100.00
2022-11-07T07:25:40.444Z,100.00
2022-11-07T07:28:07.182Z,100.00
2022-11-07T07:30:33.941Z,100.00
2022-11-07T07:33:00.722Z,100.00
2022-11-07T07:35:27.544Z,100.00
2022-11-07T07:37:54.357Z,100.00
2022-11-07T07:40:21.218Z,100.00
2022-11-07T07:42:48.083Z,100.00
2022-11-07T07:45:15.320Z,100.00
2022-11-07T07:47:42.139Z,100.00
2022-11-07T07:50:10.699Z,100.00
2022-11-07T07:52:37.580Z,100.00
2022-11-07T07:55:05.315Z,100.00
2022-11-07T07:57:32.121Z,100.00
2022-11-07T07:59:58.842Z,100.00
2022-11-07T08:02:25.671Z,100.00
2022-11-07T08:04:52.500Z,100.00
2022-11-07T08:07:19.339Z,100.00
2022-11-07T08:09:46.082Z,100.00
2022-11-07T08:12:12.840Z,100.00
2022-11-07T08:14:39.588Z,100.00
2022-11-07T08:17:06.424Z,100.00
2022-11-07T08:19:33.191Z,100.00
2022-11-07T08:21:59.959Z,100.00
2022-11-07T08:24:26.714Z,100.00
2022-11-07T08:26:53.479Z,100.00
2022-11-07T08:29:20.280Z,100.00
2022-11-07T08:31:50.641Z,100.00
2022-11-07T08:34:18.582Z,100.00
2022-11-07T08:36:45.625Z,100.00
2022-11-07T08:39:12.443Z,100.00
2022-11-07T08:41:39.286Z,100.00
2022-11-07T08:44:08.341Z,100.00
2022-11-07T08:46:35.139Z,100.00
2022-11-07T08:49:01.941Z,100.00
2022-11-07T08:51:28.721Z,100.00
2022-11-07T08:53:55.500Z,100.00
2022-11-07T08:56:22.298Z,100.00
2022-11-07T08:58:49.098Z,100.00
2022-11-07T09:01:15.972Z,100.00
2022-11-07T09:03:47.503Z,100.00
2022-11-07T09:06:16.059Z,100.00
2022-11-07T09:08:43.107Z,100.00
2022-11-07T09:11:10.033Z,100.00
2022-11-07T09:13:37.102Z,100.00
2022-11-07T09:16:04.566Z,100.00
2022-11-07T09:18:32.183Z,100.00
2022-11-07T09:20:59.099Z,100.00
2022-11-07T09:23:26.061Z,100.00
2022-11-07T09:25:52.828Z,100.00
2022-11-07T09:28:19.683Z,100.00
2022-11-07T09:30:46.500Z,100.00
2022-11-07T09:33:13.760Z,100.00
2022-11-07T09:35:40.819Z,100.00
2022-11-07T09:38:07.600Z,100.00
2022-11-07T09:41:02.144Z,100.00
2022-11-07T09:43:33.848Z,99.50
2022-11-07T09:46:22.380Z,99.10
2022-11-07T09:48:56.222Z,98.12
2022-11-07T09:51:29.642Z,97.02
2022-11-07T09:54:01.622Z,95.27
2022-11-07T09:56:31.643Z,94.55
2022-11-07T09:58:58.819Z,92.87
2022-11-07T10:01:25.793Z,90.53
2022-11-07T10:04:23.175Z,87.30
2022-11-07T10:07:05.421Z,87.09
2022-11-07T10:10:03.560Z,87.09
2022-11-07T10:12:49.163Z,85.70
2022-11-07T10:15:17.845Z,84.20
2022-11-07T10:18:05.839Z,81.69
2022-11-07T10:21:36.622Z,80.27
2022-11-07T10:24:23.420Z,78.26
2022-11-07T10:26:50.160Z,76.29
2022-11-07T10:29:19.082Z,75.50
2022-11-07T10:31:57.201Z,73.76
2022-11-07T10:34:31.761Z,73.11
2022-11-07T10:36:58.596Z,71.83
2022-11-07T10:39:25.392Z,71.26
2022-11-07T10:42:04.200Z,71.15
2022-11-07T10:44:31.020Z,70.60
2022-11-07T10:46:57.901Z,71.09
2022-11-07T10:49:26.756Z,71.74
2022-11-07T10:51:53.898Z,72.26
2022-11-07T10:54:26.364Z,71.88
2022-11-07T10:57:05.424Z,72.65
2022-11-07T10:59:36.557Z,73.34
2022-11-07T11:02:04.047Z,75.22
2022-11-07T11:04:32.726Z,78.14
2022-11-07T11:07:04.344Z,80.50
2022-11-07T11:09:35.352Z,81.62
2022-11-07T11:12:06.673Z,83.15
2022-11-07T11:14:33.548Z,84.08
2022-11-07T11:17:00.438Z,86.25
2022-11-07T11:19:36.862Z,87.36
2022-11-07T11:22:09.825Z,88.78
2022-11-07T11:24:40.140Z,89.69
2022-11-07T11:27:18.140Z,90.91
2022-11-07T11:29:54.064Z,91.42
2022-11-07T11:33:02.168Z,91.37
2022-11-07T11:35:58.832Z,90.42
2022-11-07T11:38:32.060Z,91.58
2022-11-07T11:41:07.683Z,92.65
2022-11-07T11:43:43.323Z,91.82
2022-11-07T11:46:31.574Z,92.93
2022-11-07T11:49:01.428Z,92.41
2022-11-07T11:51:57.001Z,93.67
2022-11-07T11:54:23.780Z,94.10
2022-11-07T11:56:55.246Z,94.32
2022-11-07T11:59:32.400Z,93.72
2022-11-07T12:02:29.189Z,93.79
2022-11-07T12:05:01.962Z,93.37
2022-11-07T12:07:40.660Z,92.79
2022-11-07T12:10:35.260Z,93.41
2022-11-07T12:13:21.755Z,90.96
2022-11-07T12:16:11.708Z,90.58
2022-11-07T12:18:44.919Z,89.77
2022-11-07T12:21:32.419Z,90.85
2022-11-07T12:24:11.220Z,91.61
2022-11-07T12:26:57.708Z,91.51
2022-11-07T12:29:43.401Z,92.59
2022-11-07T12:32:14.789Z,92.29
2022-11-07T12:35:10.460Z,93.22
2022-11-07T12:38:00.520Z,92.23
2022-11-07T12:40:31.120Z,92.73
2022-11-07T12:43:35.442Z,92.05
2022-11-07T12:46:17.083Z,92.66
2022-11-07T12:49:24.216Z,91.41
2022-11-07T12:52:09.659Z,92.01
2022-11-07T12:54:36.420Z,93.37
2022-11-07T12:57:06.120Z,93.77
2022-11-07T12:59:32.961Z,94.45
2022-11-07T13:02:04.992Z,94.39
2022-11-07T13:04:39.201Z,95.94
2022-11-07T13:07:19.873Z,95.90
2022-11-07T13:10:04.227Z,95.60
2022-11-07T13:12:55.444Z,94.76
2022-11-07T13:15:22.285Z,95.61
2022-11-07T13:17:49.139Z,96.18
2022-11-07T13:20:21.983Z,95.53
2022-11-07T13:22:49.681Z,96.61
2022-11-07T13:25:17.304Z,96.17
2022-11-07T13:27:53.520Z,97.54
2022-11-07T13:30:21.141Z,97.54
2022-11-07T13:32:49.829Z,98.46
2022-11-07T13:35:31.184Z,98.67
2022-11-07T13:38:24.590Z,98.83
2022-11-07T13:40:58.298Z,99.40
2022-11-07T13:43:55.436Z,99.76
2022-11-07T13:46:51.642Z,99.70
2022-11-07T13:49:44.555Z,99.73
2022-11-07T13:52:38.319Z,100.00
2022-11-07T13:55:24.221Z,100.00
2022-11-07T13:58:13.066Z,100.00
2022-11-07T14:00:39.939Z,100.00
2022-11-07T14:03:06.879Z,100.00
2022-11-07T14:05:36.182Z,100.00
2022-11-07T14:08:05.540Z,100.00
2022-11-07T14:10:43.641Z,100.00
2022-11-07T14:13:18.918Z,100.00
2022-11-07T14:15:50.818Z,100.00
2022-11-07T14:18:18.280Z,100.00
2022-11-07T14:20:49.536Z,100.00
2022-11-07T14:23:16.799Z,100.00
2022-11-07T14:25:43.561Z,100.00
2022-11-07T14:28:17.384Z,100.00
2022-11-07T14:30:44.562Z,100.00
2022-11-07T14:33:20.206Z,100.00
2022-11-07T14:35:48.321Z,100.00
2022-11-07T14:38:22.709Z,100.00
2022-11-07T14:40:50.198Z,100.00
2022-11-07T14:43:19.722Z,100.00
2022-11-07T14:46:11.468Z,100.00
2022-11-07T14:48:33.845Z,100.00
2022-11-07T14:51:00.621Z,100.00
2022-11-07T14:53:53.382Z,100.00
2022-11-07T14:56:22.623Z,100.00
2022-11-07T14:58:49.448Z,100.00
2022-11-07T15:01:25.224Z,100.00
2022-11-07T15:03:57.219Z,100.00
2022-11-07T15:06:34.947Z,100.00
2022-11-07T15:09:06.327Z,100.00
2022-11-07T15:11:34.705Z,100.00
2022-11-07T15:14:02.670Z,100.00
2022-11-07T15:16:36.416Z,100.00
2022-11-07T15:19:03.963Z,100.00
2022-11-07T15:21:32.758Z,100.00
2022-11-07T15:24:00.559Z,100.00
2022-11-07T15:26:34.946Z,100.00
2022-11-07T15:29:21.064Z,100.00
2022-11-07T15:31:48.705Z,100.00
2022-11-07T15:34:33.770Z,100.00
2022-11-07T15:37:12.747Z,100.00
2022-11-07T15:39:39.620Z,100.00
2022-11-07T15:42:06.382Z,100.00
2022-11-07T15:44:33.220Z,100.00
2022-11-07T15:47:00.099Z,100.00
2022-11-07T15:49:26.900Z,100.00
2022-11-07T15:51:53.764Z,100.00
2022-11-07T15:54:20.600Z,100.00
2022-11-07T15:56:47.487Z,100.00
2022-11-07T15:59:24.561Z,100.00
2022-11-07T16:01:51.426Z,100.00
2022-11-07T16:04:18.400Z,100.00
2022-11-07T16:06:46.273Z,100.00
2022-11-07T16:09:17.749Z,100.00
2022-11-07T16:11:45.447Z,100.00
2022-11-07T16:14:42.155Z,100.00
2022-11-07T16:17:03.822Z,100.00
2022-11-07T16:19:30.663Z,100.00
2022-11-07T16:21:57.565Z,100.00
2022-11-07T16:24:24.328Z,100.00
2022-11-07T16:26:51.183Z,100.00
2022-11-07T16:29:17.970Z,100.00
2022-11-07T16:31:44.799Z,100.00
2022-11-07T16:34:11.861Z,100.00
2022-11-07T16:36:38.733Z,100.00
2022-11-07T16:39:07.908Z,100.00
2022-11-07T16:41:35.184Z,100.00
2022-11-07T16:44:02.084Z,100.00
2022-11-07T16:46:29.080Z,100.00
2022-11-07T16:49:20.763Z,100.00
2022-11-07T16:51:47.586Z,100.00
2022-11-07T16:54:14.385Z,100.00
2022-11-07T16:56:41.624Z,100.00
2022-11-07T16:59:08.622Z,100.00
2022-11-07T17:01:36.579Z,100.00
2022-11-07T17:04:03.911Z,100.00
2022-11-07T17:06:32.124Z,100.00
2022-11-07T17:09:07.198Z,100.00
2022-11-07T17:11:37.771Z,100.00
2022-11-07T17:14:04.776Z,100.00
2022-11-07T17:16:34.965Z,100.00
2022-11-07T17:19:01.746Z,100.00
2022-11-07T17:21:30.139Z,100.00
2022-11-07T17:23:58.399Z,100.00
2022-11-07T17:26:35.949Z,100.00
2022-11-07T17:29:03.212Z,100.00
2022-11-07T17:31:30.030Z,100.00
2022-11-07T17:33:56.802Z,100.00
2022-11-07T17:36:36.774Z,100.00
2022-11-07T17:39:11.687Z,100.00
2022-11-07T17:41:39.609Z,100.00
2022-11-07T17:44:06.507Z,100.00
2022-11-07T17:46:34.365Z,100.00
2022-11-07T17:49:02.642Z,100.00
2022-11-07T17:51:29.724Z,100.00
2022-11-07T17:53:57.123Z,100.00
2022-11-07T17:56:28.521Z,100.00
2022-11-07T17:59:00.151Z,100.00
2022-11-07T18:01:28.658Z,100.00
2022-11-07T18:03:57.240Z,100.00
2022-11-07T18:06:24.321Z,100.00
2022-11-07T18:08:52.836Z,100.00
2022-11-07T18:11:20.842Z,100.00
2022-11-07T18:13:50.301Z,100.00
2022-11-07T18:16:19.721Z,100.00
2022-11-07T18:18:46.593Z,100.00
2022-11-07T18:21:13.440Z,100.00
2022-11-07T18:23:43.446Z,100.00
2022-11-07T18:26:30.856Z,100.00
2022-11-07T18:29:01.484Z,100.00
2022-11-07T18:31:28.319Z,100.00
2022-11-07T18:34:03.103Z,100.00
2022-11-07T18:36:30.877Z,100.00
2022-11-07T18:39:14.679Z,100.00
2022-11-07T18:41:41.495Z,100.00
2022-11-07T18:44:09.526Z,100.00
2022-11-07T18:46:36.565Z,100.00
2022-11-07T18:49:03.708Z,100.00
2022-11-07T18:51:30.625Z,100.00
2022-11-07T18:53:58.718Z,100.00
2022-11-07T18:56:25.758Z,100.00
2022-11-07T18:58:52.604Z,100.00
2022-11-07T19:01:26.345Z,100.00
2022-11-07T19:03:53.448Z,100.00
2022-11-07T19:06:21.161Z,100.00
2022-11-07T19:08:48.320Z,100.00
2022-11-07T19:11:16.965Z,100.00
2022-11-07T19:13:45.557Z,100.00
2022-11-07T19:16:15.642Z,100.00
2022-11-07T19:18:48.952Z,100.00
2022-11-07T19:21:20.152Z,100.00
2022-11-07T19:23:47.683Z,100.00
2022-11-07T19:26:14.697Z,100.00
2022-11-07T19:28:41.791Z,100.00
2022-11-07T19:31:11.028Z,100.00
2022-11-07T19:33:37.799Z,100.00
2022-11-07T19:36:06.602Z,100.00
2022-11-07T19:38:33.563Z,100.00
2022-11-07T19:41:07.159Z,100.00
2022-11-07T19:43:34.372Z,100.00
2022-11-07T19:46:06.404Z,100.00
2022-11-07T19:48:33.220Z,100.00
2022-11-07T19:51:00.042Z,100.00
2022-11-07T19:53:26.885Z,100.00
2022-11-07T19:55:53.664Z,100.00
2022-11-07T19:58:20.425Z,100.00
2022-11-07T20:00:47.274Z,100.00
2022-11-07T20:03:14.370Z,100.00
2022-11-07T20:05:41.466Z,100.00
2022-11-07T20:08:08.343Z,100.00
2022-11-07T20:10:35.202Z,100.00
2022-11-07T20:13:02.047Z,100.00
2022-11-07T20:15:28.944Z,100.00
2022-11-07T20:17:55.727Z,100.00
2022-11-07T20:20:22.548Z,100.00
2022-11-07T20:22:49.362Z,100.00
2022-11-07T20:25:16.343Z,100.00
2022-11-07T20:27:43.288Z,100.00
2022-11-07T20:30:10.929Z,100.00
2022-11-07T20:32:37.960Z,100.00
2022-11-07T20:35:05.221Z,100.00
2022-11-07T20:37:34.245Z,100.00
2022-11-07T20:40:01.000Z,100.00
2022-11-07T20:42:27.860Z,100.00
2022-11-07T20:44:54.662Z,100.00
2022-11-07T20:47:22.662Z,100.00
2022-11-07T20:49:49.813Z,100.00
2022-11-07T20:52:18.840Z,100.00
2022-11-07T20:54:45.673Z,100.00
2022-11-07T20:57:12.465Z,100.00
2022-11-07T20:59:41.373Z,100.00
2022-11-07T21:02:12.513Z,100.00
2022-11-07T21:04:56.414Z,100.00
2022-11-07T21:07:26.163Z,100.00
2022-11-07T21:09:52.985Z,100.00
2022-11-07T21:12:19.784Z,100.00
2022-11-07T21:14:46.587Z,100.00
2022-11-07T21:17:13.425Z,100.00
2022-11-07T21:19:40.201Z,100.00
2022-11-07T21:22:06.964Z,100.00
2022-11-07T21:24:33.859Z,100.00
2022-11-07T21:27:00.662Z,100.00
2022-11-07T21:29:29.819Z,100.00
2022-11-07T21:31:56.956Z,100.00
2022-11-07T21:34:24.071Z,100.00
2022-11-07T21:36:50.972Z,100.00
2022-11-07T21:39:18.075Z,100.00
2022-11-07T21:41:45.024Z,100.00
2022-11-07T21:44:12.303Z,100.00
2022-11-07T21:46:39.256Z,100.00
2022-11-07T21:49:06.535Z,100.00
2022-11-07T21:51:34.424Z,100.00
2022-11-07T21:54:01.583Z,100.00
2022-11-07T21:56:29.908Z,100.00
2022-11-07T21:58:58.404Z,100.00
2022-11-07T22:01:25.664Z,100.00
2022-11-07T22:04:12.086Z,100.00
2022-11-07T22:06:41.445Z,100.00
2022-11-07T22:09:08.827Z,100.00
2022-11-07T22:11:35.879Z,100.00
2022-11-07T22:14:03.086Z,100.00
2022-11-07T22:16:30.005Z,100.00
2022-11-07T22:18:58.039Z,100.00
2022-11-07T22:21:24.841Z,100.00
2022-11-07T22:23:51.720Z,100.00
2022-11-07T22:26:20.161Z,100.00
2022-11-07T22:28:47.114Z,100.00
2022-11-07T22:31:20.609Z,100.00
2022-11-07T22:33:47.720Z,100.00
2022-11-07T22:36:14.702Z,100.00
2022-11-07T22:38:41.693Z,100.00
2022-11-07T22:41:11.120Z,100.00
2022-11-07T22:43:38.002Z,100.00
2022-11-07T22:46:09.323Z,100.00
2022-11-07T22:48:36.128Z,100.00
2022-11-07T22:51:07.499Z,100.00
2022-11-07T22:53:34.439Z,100.00
2022-11-07T22:56:15.204Z,100.00
2022-11-07T22:58:42.177Z,100.00
2022-11-07T23:01:34.256Z,100.00
2022-11-07T23:04:01.248Z,100.00
2022-11-07T23:06:28.730Z,100.00
2022-11-07T23:08:57.829Z,100.00
2022-11-07T23:14:14.000Z,100.00
2022-11-07T23:16:44.102Z,100.00
2022-11-07T23:19:14.682Z,100.00
2022-11-07T23:21:41.544Z,100.00
2022-11-07T23:24:08.422Z,100.00
2022-11-07T23:26:35.401Z,100.00
2022-11-07T23:29:14.044Z,100.00
2022-11-07T23:31:41.924Z,100.00
2022-11-07T23:34:08.979Z,100.00
2022-11-07T23:36:35.774Z,100.00
2022-11-07T23:39:06.547Z,100.00
2022-11-07T23:41:33.441Z,100.00
2022-11-07T23:44:00.282Z,100.00
2022-11-07T23:46:45.493Z,100.00
2022-11-07T23:49:30.579Z,100.00
2022-11-07T23:51:57.421Z,100.00
2022-11-07T23:54:42.421Z,100.00
2022-11-07T23:57:09.199Z,100.00
2022-11-07T23:59:54.263Z,100.00
